createdAt,value
2022-10-14T00:01:27.057Z,99465.28
2022-10-14T00:03:56.516Z,99464.47
2022-10-14T00:06:28.917Z,99463.94
2022-10-14T00:09:00.427Z,99466.72
2022-10-14T00:11:32.051Z,99463.94
2022-10-14T00:14:03.961Z,99461.44
2022-10-14T00:16:36.583Z,99460.34
2022-10-14T00:19:06.523Z,99453.13
2022-10-14T00:21:38.350Z,99451.19
2022-10-14T00:24:07.511Z,99448.94
2022-10-14T00:26:39.161Z,99453.66
2022-10-14T00:29:11.164Z,99455.63
2022-10-14T00:31:39.536Z,99456.41
2022-10-14T00:34:07.960Z,99445.66
2022-10-14T00:36:37.724Z,99453.44
2022-10-14T00:39:06.162Z,99453.75
2022-10-14T00:41:36.137Z,99446.03
2022-10-14T00:44:08.000Z,99452.47
2022-10-14T00:46:39.152Z,99451.09
2022-10-14T00:49:13.234Z,99454.47
2022-10-14T00:51:47.835Z,99459.50
2022-10-14T00:54:20.938Z,99455.38
2022-10-14T00:56:50.682Z,99459.28
2022-10-14T00:59:19.403Z,99453.22
2022-10-14T01:01:47.929Z,99465.72
2022-10-14T01:04:16.353Z,99458.50
2022-10-14T01:06:55.711Z,99456.31
2022-10-14T01:09:32.522Z,99459.72
2022-10-14T01:12:28.107Z,99455.03
2022-10-14T01:15:05.319Z,99458.38
2022-10-14T01:17:48.249Z,99448.19
2022-10-14T01:20:42.617Z,99437.69
2022-10-14T01:23:47.517Z,99446.63
2022-10-14T01:26:41.508Z,99449.13
2022-10-14T01:29:26.871Z,99446.16
2022-10-14T01:32:03.820Z,99451.16
2022-10-14T01:34:38.028Z,99440.38
2022-10-14T01:37:13.233Z,99452.00
2022-10-14T01:39:46.948Z,99449.84
2022-10-14T01:42:21.355Z,99437.75
2022-10-14T01:44:57.938Z,99437.50
2022-10-14T01:47:32.244Z,99429.75
2022-10-14T01:50:05.310Z,99432.31
2022-10-14T01:52:39.603Z,99430.94
2022-10-14T01:55:14.962Z,99425.19
2022-10-14T01:57:45.273Z,99426.59
2022-10-14T02:00:15.448Z,99429.13
2022-10-14T02:02:45.204Z,99422.22
2022-10-14T02:05:20.982Z,99431.13
2022-10-14T02:07:53.839Z,99428.63
2022-10-14T02:10:37.586Z,99418.97
2022-10-14T02:13:21.623Z,99417.63
2022-10-14T02:16:05.248Z,99417.63
2022-10-14T02:18:43.519Z,99418.44
2022-10-14T02:21:20.811Z,99418.41
2022-10-14T02:23:57.716Z,99424.16
2022-10-14T02:26:27.670Z,99431.31
2022-10-14T02:28:57.889Z,99426.53
2022-10-14T02:31:29.107Z,99423.44
2022-10-14T02:34:04.857Z,99418.63
2022-10-14T02:36:35.768Z,99412.72
2022-10-14T02:39:07.508Z,99409.69
2022-10-14T02:41:39.039Z,99409.69
2022-10-14T02:44:08.189Z,99401.06
2022-10-14T02:46:37.243Z,99400.25
2022-10-14T02:49:06.965Z,99402.19
2022-10-14T02:51:35.384Z,99406.94
2022-10-14T02:54:03.758Z,99410.78
2022-10-14T02:56:32.147Z,99418.00
2022-10-14T02:59:00.486Z,99421.56
2022-10-14T03:01:30.005Z,99435.13
2022-10-14T03:04:01.047Z,99433.72
2022-10-14T03:06:30.756Z,99428.72
2022-10-14T03:08:59.101Z,99436.72
2022-10-14T03:11:27.414Z,99430.91
2022-10-14T03:13:55.761Z,99419.81
2022-10-14T03:16:24.093Z,99420.34
2022-10-14T03:18:52.467Z,99427.50
2022-10-14T03:21:21.215Z,99431.31
2022-10-14T03:23:50.966Z,99433.25
2022-10-14T03:26:19.289Z,99436.22
2022-10-14T03:28:47.736Z,99441.19
2022-10-14T03:31:16.097Z,99440.31
2022-10-14T03:33:44.485Z,99436.13
2022-10-14T03:36:13.255Z,99442.19
2022-10-14T03:38:41.620Z,99438.81
2022-10-14T03:41:11.329Z,99433.25
2022-10-14T03:43:39.674Z,99431.84
2022-10-14T03:46:08.035Z,99423.25
2022-10-14T03:48:36.390Z,99424.31
2022-10-14T03:51:04.897Z,99421.75
2022-10-14T03:53:33.289Z,99421.97
2022-10-14T03:56:01.605Z,99418.91
2022-10-14T03:58:31.340Z,99416.06
2022-10-14T04:00:59.764Z,99419.88
2022-10-14T04:03:28.176Z,99420.13
2022-10-14T04:05:56.575Z,99421.97
2022-10-14T04:08:24.918Z,99420.84
2022-10-14T04:10:54.444Z,99422.19
2022-10-14T04:13:23.273Z,99417.47
2022-10-14T04:15:53.038Z,99424.97
2022-10-14T04:18:21.403Z,99423.84
2022-10-14T04:20:49.805Z,99431.03
2022-10-14T04:23:18.127Z,99433.22
2022-10-14T04:25:46.558Z,99432.63
2022-10-14T04:28:15.325Z,99429.53
2022-10-14T04:30:44.076Z,99440.31
2022-10-14T04:33:13.842Z,99440.03
2022-10-14T04:35:42.204Z,99433.84
2022-10-14T04:38:10.544Z,99432.16
2022-10-14T04:40:38.938Z,99434.28
2022-10-14T04:43:07.304Z,99429.81
2022-10-14T04:45:35.652Z,99429.19
2022-10-14T04:48:04.009Z,99428.59
2022-10-14T04:50:33.779Z,99428.00
2022-10-14T04:53:02.394Z,99432.91
2022-10-14T04:55:30.952Z,99431.81
2022-10-14T04:57:59.344Z,99431.50
2022-10-14T05:00:27.784Z,99432.13
2022-10-14T05:02:56.160Z,99442.06
2022-10-14T05:05:24.523Z,99432.31
2022-10-14T05:07:54.275Z,99427.59
2022-10-14T05:10:23.010Z,99433.66
2022-10-14T05:12:52.096Z,99421.47
2022-10-14T05:15:20.470Z,99430.00
2022-10-14T05:17:49.273Z,99442.16
2022-10-14T05:20:17.842Z,99438.78
2022-10-14T05:22:46.503Z,99445.97
2022-10-14T05:25:16.421Z,99445.34
2022-10-14T05:27:44.776Z,99447.84
2022-10-14T05:30:14.549Z,99455.84
2022-10-14T05:32:42.903Z,99464.19
2022-10-14T05:35:11.645Z,99473.63
2022-10-14T05:37:40.025Z,99468.06
2022-10-14T05:40:11.313Z,99470.84
2022-10-14T05:42:41.097Z,99470.03
2022-10-14T05:45:11.340Z,99476.69
2022-10-14T05:47:39.694Z,99479.78
2022-10-14T05:50:09.282Z,99482.66
2022-10-14T05:52:37.725Z,99481.84
2022-10-14T05:55:07.573Z,99482.50
2022-10-14T05:57:36.062Z,99490.25
2022-10-14T06:00:08.036Z,99490.06
2022-10-14T06:02:36.397Z,99487.28
2022-10-14T06:05:05.394Z,99482.63
2022-10-14T06:07:36.084Z,99482.41
2022-10-14T06:10:04.713Z,99490.19
2022-10-14T06:12:33.202Z,99495.53
2022-10-14T06:15:01.529Z,99495.84
2022-10-14T06:17:31.434Z,99495.31
2022-10-14T06:19:59.837Z,99494.50
2022-10-14T06:22:29.931Z,99505.88
2022-10-14T06:25:01.754Z,99499.28
2022-10-14T06:27:32.516Z,99496.59
2022-10-14T06:30:00.917Z,99496.97
2022-10-14T06:32:30.699Z,99498.16
2022-10-14T06:34:59.069Z,99503.53
2022-10-14T06:37:27.431Z,99500.31
2022-10-14T06:39:55.782Z,99501.50
2022-10-14T06:42:24.292Z,99498.81
2022-10-14T06:44:52.822Z,99503.59
2022-10-14T06:47:21.463Z,99504.75
2022-10-14T06:49:51.214Z,99504.03
2022-10-14T06:52:19.719Z,99501.84
2022-10-14T06:54:48.536Z,99504.41
2022-10-14T06:57:17.222Z,99497.00
2022-10-14T06:59:46.084Z,99493.69
2022-10-14T07:02:14.504Z,99500.34
2022-10-14T07:04:43.076Z,99489.56
2022-10-14T07:07:12.856Z,99492.03
2022-10-14T07:09:41.224Z,99492.56
2022-10-14T07:12:09.608Z,99482.00
2022-10-14T07:14:37.993Z,99486.44
2022-10-14T07:17:08.170Z,99480.91
2022-10-14T07:19:36.755Z,99478.66
2022-10-14T07:22:05.789Z,99479.69
2022-10-14T07:24:35.629Z,99491.84
2022-10-14T07:29:37.622Z,99480.66
2022-10-14T07:32:06.271Z,99478.66
2022-10-14T07:34:34.959Z,99478.28
2022-10-14T07:37:03.476Z,99487.06
2022-10-14T07:39:31.937Z,99480.31
2022-10-14T07:42:01.782Z,99476.66
2022-10-14T07:44:30.536Z,99471.56
2022-10-14T07:47:01.705Z,99467.56
2022-10-14T07:49:30.290Z,99462.47
2022-10-14T07:51:58.775Z,99464.06
2022-10-14T07:54:29.562Z,99472.84
2022-10-14T07:56:59.015Z,99475.53
2022-10-14T07:59:28.806Z,99479.63
2022-10-14T08:01:57.406Z,99486.53
2022-10-14T08:04:26.772Z,99474.84
2022-10-14T08:06:55.164Z,99478.97
2022-10-14T08:09:24.009Z,99471.97
2022-10-14T08:11:52.546Z,99465.00
2022-10-14T08:14:21.005Z,99460.53
2022-10-14T08:16:50.782Z,99461.78
2022-10-14T08:19:19.480Z,99443.91
2022-10-14T08:21:47.933Z,99450.22
2022-10-14T08:24:16.392Z,99448.38
2022-10-14T08:26:52.654Z,99457.13
2022-10-14T08:29:23.365Z,99476.38
2022-10-14T08:31:55.315Z,99479.38
2022-10-14T08:34:24.625Z,99478.84
2022-10-14T08:36:53.082Z,99490.25
2022-10-14T08:39:22.575Z,99496.13
2022-10-14T08:42:26.558Z,99503.69
2022-10-14T08:44:59.137Z,99498.06
2022-10-14T08:47:40.550Z,99500.75
2022-10-14T08:50:26.986Z,99495.94
2022-10-14T08:53:01.644Z,99499.03
2022-10-14T08:55:38.352Z,99499.03
2022-10-14T08:58:15.362Z,99497.34
2022-10-14T09:00:48.049Z,99499.19
2022-10-14T09:03:23.033Z,99496.56
2022-10-14T09:05:59.853Z,99494.81
2022-10-14T09:08:34.929Z,99489.94
2022-10-14T09:11:03.693Z,99483.00
2022-10-14T09:13:38.330Z,99491.94
2022-10-14T09:16:13.706Z,99484.28
2022-10-14T09:18:53.853Z,99494.66
2022-10-14T09:21:40.848Z,99487.00
2022-10-14T09:24:24.148Z,99493.97
2022-10-14T09:26:58.431Z,99484.03
2022-10-14T09:29:29.801Z,99489.78
2022-10-14T09:32:01.110Z,99480.78
2022-10-14T09:34:38.204Z,99485.53
2022-10-14T09:37:31.542Z,99479.97
2022-10-14T09:40:05.962Z,99483.63
2022-10-14T09:42:49.160Z,99481.72
2022-10-14T09:45:20.504Z,99483.47
2022-10-14T09:47:56.454Z,99485.00
2022-10-14T09:50:39.862Z,99496.06
2022-10-14T09:53:17.813Z,99488.19
2022-10-14T09:55:53.412Z,99495.78
2022-10-14T09:58:34.196Z,99488.56
2022-10-14T10:01:03.881Z,99492.84
2022-10-14T10:03:35.594Z,99491.31
2022-10-14T10:06:09.662Z,99496.25
2022-10-14T10:08:41.340Z,99486.88
2022-10-14T10:11:14.030Z,99489.34
2022-10-14T10:13:45.662Z,99489.84
2022-10-14T10:16:24.704Z,99487.88
2022-10-14T10:18:57.303Z,99491.00
2022-10-14T10:21:30.231Z,99492.66
2022-10-14T10:24:01.344Z,99495.44
2022-10-14T10:26:33.532Z,99486.75
2022-10-14T10:29:03.673Z,99482.69
2022-10-14T10:32:13.593Z,99480.53
2022-10-14T10:35:12.032Z,99473.53
2022-10-14T10:37:56.921Z,99477.34
2022-10-14T10:40:42.104Z,99474.25
2022-10-14T10:43:43.282Z,99469.81
2022-10-14T10:46:45.114Z,99469.00
2022-10-14T10:49:27.863Z,99465.91
2022-10-14T10:52:01.502Z,99447.19
2022-10-14T10:54:43.796Z,99444.53
2022-10-14T10:57:30.284Z,99446.81
2022-10-14T11:00:02.634Z,99444.06
2022-10-14T11:03:00.442Z,99433.00
2022-10-14T11:05:51.851Z,99422.25
2022-10-14T11:09:22.736Z,99417.88
2022-10-14T11:12:07.650Z,99421.59
2022-10-14T11:15:16.026Z,99404.56
2022-10-14T11:17:55.098Z,99405.59
2022-10-14T11:20:37.221Z,99404.59
2022-10-14T11:23:38.231Z,99408.22
2022-10-14T11:26:21.291Z,99401.91
2022-10-14T11:29:04.130Z,99393.50
2022-10-14T11:31:41.826Z,99390.88
2022-10-14T11:34:33.250Z,99397.78
2022-10-14T11:37:10.870Z,99391.75
2022-10-14T11:39:48.159Z,99392.00
2022-10-14T11:42:30.272Z,99397.41
2022-10-14T11:45:21.561Z,99387.22
2022-10-14T11:47:54.799Z,99383.78
2022-10-14T11:50:30.311Z,99383.19
2022-10-14T11:53:09.539Z,99371.69
2022-10-14T11:55:44.376Z,99370.53
2022-10-14T11:58:18.559Z,99370.31
2022-10-14T12:00:55.106Z,99360.84
2022-10-14T12:03:30.594Z,99360.38
2022-10-14T12:06:05.489Z,99353.97
2022-10-14T12:08:41.370Z,99358.97
2022-10-14T12:11:15.307Z,99350.69
2022-10-14T12:13:48.182Z,99346.38
2022-10-14T12:16:21.167Z,99349.41
2022-10-14T12:18:54.925Z,99348.94
2022-10-14T12:21:31.353Z,99340.88
2022-10-14T12:24:05.915Z,99339.13
2022-10-14T12:26:54.155Z,99335.28
2022-10-14T12:29:25.885Z,99336.06
2022-10-14T12:32:22.531Z,99331.97
2022-10-14T12:34:53.773Z,99335.75
2022-10-14T12:37:54.432Z,99334.78
2022-10-14T12:40:31.268Z,99327.78
2022-10-14T12:43:14.136Z,99323.22
2022-10-14T12:46:14.168Z,99330.03
2022-10-14T12:48:54.879Z,99332.56
2022-10-14T12:51:25.228Z,99333.63
2022-10-14T12:54:05.852Z,99333.28
2022-10-14T12:56:39.752Z,99325.81
2022-10-14T12:59:10.520Z,99328.72
2022-10-14T13:01:43.892Z,99323.13
2022-10-14T13:04:20.293Z,99329.53
2022-10-14T13:07:40.242Z,99323.44
2022-10-14T13:10:46.919Z,99326.34
2022-10-14T13:14:01.436Z,99322.69
2022-10-14T13:17:28.612Z,99319.16
2022-10-14T13:19:58.558Z,99323.25
2022-10-14T13:22:41.442Z,99323.41
2022-10-14T13:25:20.102Z,99324.06
2022-10-14T13:28:14.384Z,99318.72
2022-10-14T13:30:57.433Z,99320.31
2022-10-14T13:33:35.014Z,99316.56
2022-10-14T13:36:16.743Z,99314.13
2022-10-14T13:38:53.313Z,99316.69
2022-10-14T13:41:30.765Z,99316.47
2022-10-14T13:44:01.569Z,99317.66
2022-10-14T13:46:35.171Z,99313.09
2022-10-14T13:49:06.891Z,99319.00
2022-10-14T13:51:46.367Z,99311.63
2022-10-14T13:54:21.576Z,99311.88
2022-10-14T14:02:41.096Z,99309.41
2022-10-14T14:05:16.978Z,99311.25
2022-10-14T14:10:42.534Z,99302.56
2022-10-14T14:13:15.278Z,99297.66
2022-10-14T14:15:43.784Z,99302.09
2022-10-14T14:18:48.881Z,99302.94
2022-10-14T14:21:25.589Z,99299.69
2022-10-14T14:23:57.930Z,99299.03
2022-10-14T14:26:34.647Z,99293.56
2022-10-14T14:29:05.947Z,99293.56
2022-10-14T14:34:25.617Z,99287.38
2022-10-14T14:37:01.393Z,99289.22
2022-10-14T14:39:35.724Z,99281.03
2022-10-14T14:42:04.132Z,99279.38
2022-10-14T14:44:35.538Z,99276.94
2022-10-14T14:47:05.727Z,99276.47
2022-10-14T14:49:38.398Z,99274.00
2022-10-14T14:52:07.562Z,99278.09
2022-10-14T14:54:46.534Z,99269.09
2022-10-14T14:57:19.741Z,99277.13
2022-10-14T14:59:59.365Z,99275.00
2022-10-14T15:02:28.262Z,99266.63
2022-10-14T15:05:06.425Z,99265.00
2022-10-14T15:07:37.327Z,99269.09
2022-10-14T15:10:10.269Z,99267.91
2022-10-14T15:12:42.515Z,99263.97
2022-10-14T15:15:30.538Z,99268.63
2022-10-14T15:18:15.893Z,99276.03
2022-10-14T15:20:45.156Z,99266.22
2022-10-14T15:23:42.833Z,99266.00
2022-10-14T15:26:31.395Z,99262.91
2022-10-14T15:29:18.792Z,99261.44
2022-10-14T15:32:04.250Z,99267.25
2022-10-14T15:34:32.916Z,99266.16
2022-10-14T15:37:01.325Z,99265.03
2022-10-14T15:39:29.816Z,99262.28
2022-10-14T15:41:59.988Z,99263.97
2022-10-14T15:44:28.381Z,99269.59
2022-10-14T15:47:15.637Z,99281.94
2022-10-14T15:49:44.171Z,99273.91
2022-10-14T15:52:16.565Z,99272.81
2022-10-14T15:54:45.932Z,99273.63
2022-10-14T15:57:16.852Z,99274.97
2022-10-14T15:59:45.490Z,99275.97
2022-10-14T16:02:20.008Z,99278.94
2022-10-14T16:05:14.769Z,99270.44
2022-10-14T16:07:37.327Z,99265.81
2022-10-14T16:10:07.832Z,99275.19
2022-10-14T16:12:37.683Z,99270.59
2022-10-14T16:15:32.913Z,99258.31
2022-10-14T16:18:02.325Z,99255.84
2022-10-14T16:20:31.585Z,99260.91
2022-10-14T16:23:04.353Z,99262.38
2022-10-14T16:25:38.973Z,99264.19
2022-10-14T16:28:10.215Z,99258.47
2022-10-14T16:30:42.094Z,99263.53
2022-10-14T16:35:47.938Z,99260.13
2022-10-14T16:38:16.422Z,99262.72
2022-10-14T16:40:44.829Z,99258.97
2022-10-14T16:43:14.567Z,99258.81
2022-10-14T16:45:43.048Z,99259.47
2022-10-14T16:48:11.391Z,99267.69
2022-10-14T16:50:39.848Z,99264.72
2022-10-14T16:53:25.321Z,99265.69
2022-10-14T16:55:53.758Z,99272.59
2022-10-14T16:58:25.575Z,99262.41
2022-10-14T17:00:54.022Z,99264.19
2022-10-14T17:03:22.746Z,99262.09
2022-10-14T17:05:59.112Z,99263.06
2022-10-14T17:08:27.911Z,99268.16
2022-10-14T17:10:59.434Z,99266.00
2022-10-14T17:13:29.842Z,99266.84
2022-10-14T17:16:02.069Z,99268.94
2022-10-14T17:18:34.498Z,99259.94
2022-10-14T17:21:07.117Z,99261.75
2022-10-14T17:23:36.340Z,99258.63
2022-10-14T17:26:06.377Z,99255.53
2022-10-14T17:28:36.921Z,99256.03
2022-10-14T17:31:10.667Z,99257.97
2022-10-14T17:33:40.238Z,99257.97
2022-10-14T17:36:16.227Z,99263.88
2022-10-14T17:38:45.880Z,99262.56
2022-10-14T17:41:16.924Z,99262.72
2022-10-14T17:43:49.541Z,99257.31
2022-10-14T17:46:21.313Z,99253.34
2022-10-14T17:48:54.348Z,99256.09
2022-10-14T17:51:25.424Z,99249.38
2022-10-14T17:53:57.263Z,99250.50
2022-10-14T17:56:27.467Z,99256.22
2022-10-14T17:59:03.645Z,99260.63
2022-10-14T18:01:38.042Z,99266.31
2022-10-14T18:04:22.104Z,99257.63
2022-10-14T18:06:51.137Z,99256.63
2022-10-14T18:09:20.898Z,99259.56
2022-10-14T18:14:42.044Z,99251.81
2022-10-14T18:17:13.145Z,99250.50
2022-10-14T18:19:46.101Z,99253.44
2022-10-14T18:22:20.192Z,99251.63
2022-10-14T18:24:49.085Z,99247.78
2022-10-14T18:27:19.300Z,99254.00
2022-10-14T18:29:49.948Z,99252.97
2022-10-14T18:32:21.027Z,99256.41
2022-10-14T18:34:50.386Z,99253.44
2022-10-14T18:37:19.505Z,99254.09
2022-10-14T18:39:49.011Z,99255.34
2022-10-14T18:42:20.881Z,99247.63
2022-10-14T18:44:52.615Z,99242.53
2022-10-14T18:47:22.207Z,99247.59
2022-10-14T18:49:52.939Z,99244.94
2022-10-14T18:52:21.662Z,99246.72
2022-10-14T18:54:51.032Z,99246.03
2022-10-14T18:57:22.722Z,99259.72
2022-10-14T18:59:54.085Z,99250.69
2022-10-14T19:02:24.372Z,99257.72
2022-10-14T19:04:53.637Z,99254.75
2022-10-14T19:07:23.214Z,99251.47
2022-10-14T19:09:54.198Z,99247.97
2022-10-14T19:12:44.733Z,99261.69
2022-10-14T19:15:17.152Z,99252.13
2022-10-14T19:17:52.193Z,99251.94
2022-10-14T19:20:23.602Z,99243.38
2022-10-14T19:22:56.703Z,99237.66
2022-10-14T19:25:27.245Z,99243.81
2022-10-14T19:27:56.312Z,99242.50
2022-10-14T19:30:30.003Z,99243.13
2022-10-14T19:32:59.740Z,99243.13
2022-10-14T19:35:28.851Z,99242.31
2022-10-14T19:37:57.420Z,99237.03
2022-10-14T19:40:27.515Z,99227.91
2022-10-14T19:42:56.998Z,99223.16
2022-10-14T19:45:29.810Z,99229.53
2022-10-14T19:47:59.491Z,99222.88
2022-10-14T19:50:29.239Z,99231.19
2022-10-14T19:52:58.197Z,99217.59
2022-10-14T19:55:26.897Z,99218.75
2022-10-14T19:57:57.869Z,99219.88
2022-10-14T20:00:29.088Z,99226.59
2022-10-14T20:02:58.284Z,99231.31
2022-10-14T20:05:28.948Z,99230.50
2022-10-14T20:07:57.705Z,99229.66
2022-10-14T20:10:26.466Z,99216.09
2022-10-14T20:12:56.034Z,99216.09
2022-10-14T20:15:25.305Z,99220.00
2022-10-14T20:17:55.098Z,99220.31
2022-10-14T20:20:23.734Z,99221.47
2022-10-14T20:22:52.278Z,99219.81
2022-10-14T20:25:20.654Z,99212.09
2022-10-14T20:27:50.725Z,99217.47
2022-10-14T20:30:19.480Z,99217.25
2022-10-14T20:32:48.442Z,99219.53
2022-10-14T20:35:18.422Z,99218.53
2022-10-14T20:37:46.899Z,99221.91
2022-10-14T20:40:16.032Z,99218.13
2022-10-14T20:42:44.401Z,99221.50
2022-10-14T20:45:12.867Z,99212.16
2022-10-14T20:47:41.279Z,99222.44
2022-10-14T20:50:11.182Z,99215.06
2022-10-14T20:52:41.045Z,99215.69
2022-10-14T20:55:10.195Z,99214.66
2022-10-14T20:57:38.882Z,99214.47
2022-10-14T21:00:09.555Z,99209.00
2022-10-14T21:02:37.988Z,99208.00
2022-10-14T21:05:07.487Z,99205.84
2022-10-14T21:07:35.869Z,99203.94
2022-10-14T21:10:06.904Z,99197.72
2022-10-14T21:12:35.390Z,99201.09
2022-10-14T21:15:04.046Z,99187.31
2022-10-14T21:17:32.574Z,99194.31
2022-10-14T21:20:00.923Z,99185.78
2022-10-14T21:22:29.398Z,99181.97
2022-10-14T21:24:57.878Z,99179.84
2022-10-14T21:27:27.593Z,99186.31
2022-10-14T21:32:29.267Z,99186.09
2022-10-14T21:34:58.591Z,99173.38
2022-10-14T21:37:26.908Z,99174.47
2022-10-14T21:39:55.257Z,99171.19
2022-10-14T21:42:23.901Z,99165.97
2022-10-14T21:44:53.800Z,99155.50
2022-10-14T21:47:22.169Z,99153.84
2022-10-14T21:49:50.520Z,99158.88
2022-10-14T21:52:18.910Z,99153.31
2022-10-14T21:54:47.311Z,99148.09
2022-10-14T21:57:17.251Z,99152.00
2022-10-14T21:59:45.611Z,99145.94
2022-10-14T22:02:15.335Z,99145.44
2022-10-14T22:04:43.734Z,99135.50
2022-10-14T22:07:12.088Z,99130.53
2022-10-14T22:09:40.492Z,99133.59
2022-10-14T22:12:09.005Z,99122.00
2022-10-14T22:14:37.369Z,99122.66
2022-10-14T22:17:05.772Z,99119.38
2022-10-14T22:19:35.528Z,99118.03
2022-10-14T22:22:04.413Z,99110.81
2022-10-14T22:24:32.772Z,99109.81
2022-10-14T22:27:01.116Z,99112.84
2022-10-14T22:29:29.520Z,99107.63
2022-10-14T22:31:57.855Z,99106.28
2022-10-14T22:34:26.239Z,99103.84
2022-10-14T22:36:55.978Z,99104.97
2022-10-14T22:39:24.363Z,99107.22
2022-10-14T22:41:52.923Z,99110.31
2022-10-14T22:44:21.409Z,99108.97
2022-10-14T22:46:49.735Z,99110.91
2022-10-14T22:49:18.095Z,99120.34
2022-10-14T22:51:47.253Z,99113.47
2022-10-14T22:54:17.298Z,99105.41
2022-10-14T22:56:45.703Z,99108.50
2022-10-14T22:59:15.629Z,99111.28
2022-10-14T23:01:44.813Z,99107.41
2022-10-14T23:04:13.703Z,99110.16
2022-10-14T23:06:44.839Z,99110.97
2022-10-14T23:09:13.395Z,99106.25
2022-10-14T23:11:43.599Z,99115.41
2022-10-14T23:14:12.032Z,99113.47
2022-10-14T23:16:40.830Z,99117.03
2022-10-14T23:19:09.355Z,99121.16
2022-10-14T23:21:40.278Z,99115.63
2022-10-14T23:24:13.482Z,99114.00
2022-10-14T23:26:43.262Z,99107.31
2022-10-14T23:29:14.634Z,99103.75
2022-10-14T23:31:43.215Z,99104.53
2022-10-14T23:34:14.342Z,99108.13
2022-10-14T23:36:43.399Z,99107.84
2022-10-14T23:39:11.999Z,99106.69
2022-10-14T23:41:42.068Z,99110.31
2022-10-14T23:44:12.971Z,99097.56
2022-10-14T23:46:41.344Z,99091.75
2022-10-14T23:49:24.864Z,99099.22
2022-10-14T23:51:54.427Z,99097.56
2022-10-14T23:54:22.792Z,99095.13
2022-10-14T23:56:52.616Z,99094.59
2022-10-14T23:59:21.007Z,99098.50
